createdAt,value
2018-07-20T00:00:30.031Z,17.20
2018-07-20T00:02:58.896Z,17.20
2018-07-20T00:05:27.781Z,17.20
2018-07-20T00:07:56.721Z,17.20
2018-07-20T00:10:25.564Z,17.20
2018-07-20T00:12:54.823Z,17.20
2018-07-20T00:15:23.674Z,17.10
2018-07-20T00:17:52.543Z,17.00
2018-07-20T00:20:21.436Z,16.90
2018-07-20T00:22:50.309Z,16.90
2018-07-20T00:25:19.206Z,16.80
2018-07-20T00:27:48.111Z,16.80
2018-07-20T00:30:17.003Z,16.80
2018-07-20T00:32:45.883Z,16.70
2018-07-20T00:35:14.787Z,16.60
2018-07-20T00:37:43.855Z,16.40
2018-07-20T00:40:12.758Z,16.40
2018-07-20T00:42:41.631Z,16.40
2018-07-20T00:45:10.518Z,16.50
2018-07-20T00:47:39.382Z,16.50
2018-07-20T00:50:08.349Z,16.50
2018-07-20T00:52:37.243Z,16.50
2018-07-20T00:55:06.136Z,16.50
2018-07-20T00:57:35.038Z,16.50
2018-07-20T01:00:03.975Z,16.40
2018-07-20T01:02:32.850Z,16.40
2018-07-20T01:05:01.747Z,16.40
2018-07-20T01:07:30.615Z,16.40
2018-07-20T01:09:59.503Z,16.40
2018-07-20T01:12:28.377Z,16.40
2018-07-20T01:14:57.303Z,16.40
2018-07-20T01:17:26.170Z,16.40
2018-07-20T01:19:55.099Z,16.40
2018-07-20T01:22:23.982Z,16.40
2018-07-20T01:24:52.915Z,16.50
2018-07-20T01:27:21.783Z,16.50
2018-07-20T01:29:50.672Z,16.50
2018-07-20T01:32:19.562Z,16.50
2018-07-20T01:34:48.446Z,16.50
2018-07-20T01:37:17.341Z,16.50
2018-07-20T01:39:46.237Z,16.50
2018-07-20T01:42:15.116Z,16.40
2018-07-20T01:44:44.000Z,16.40
2018-07-20T01:47:12.902Z,16.40
2018-07-20T01:49:41.781Z,16.30
2018-07-20T01:52:10.655Z,16.40
2018-07-20T01:54:39.527Z,16.50
2018-07-20T01:57:08.422Z,16.50
2018-07-20T01:59:37.556Z,16.50
2018-07-20T02:02:06.450Z,16.50
2018-07-20T02:04:35.746Z,16.60
2018-07-20T02:07:04.648Z,16.60
2018-07-20T02:09:33.548Z,16.60
2018-07-20T02:12:02.418Z,16.60
2018-07-20T02:14:31.307Z,16.60
2018-07-20T02:17:00.237Z,16.60
2018-07-20T02:19:29.118Z,16.70
2018-07-20T02:21:58.010Z,16.70
2018-07-20T02:24:26.899Z,16.80
2018-07-20T02:26:55.791Z,16.70
2018-07-20T02:29:24.763Z,16.80
2018-07-20T02:31:53.599Z,16.80
2018-07-20T02:34:22.478Z,16.80
2018-07-20T02:36:51.367Z,16.80
2018-07-20T02:39:20.246Z,16.80
2018-07-20T02:41:49.181Z,16.80
2018-07-20T02:44:18.042Z,16.80
2018-07-20T02:46:46.930Z,16.80
2018-07-20T02:49:15.802Z,16.80
2018-07-20T02:51:44.686Z,16.90
2018-07-20T02:54:13.574Z,16.90
2018-07-20T02:56:42.467Z,16.90
2018-07-20T02:59:11.346Z,16.90
2018-07-20T03:01:40.507Z,16.90
2018-07-20T03:04:09.379Z,16.90
2018-07-20T03:06:38.250Z,16.80
2018-07-20T03:09:09.444Z,16.80
2018-07-20T03:11:38.299Z,16.70
2018-07-20T03:14:07.231Z,16.70
2018-07-20T03:16:36.106Z,16.70
2018-07-20T03:19:05.119Z,16.70
2018-07-20T03:21:34.183Z,16.70
2018-07-20T03:24:03.096Z,16.70
2018-07-20T03:26:32.059Z,16.70
2018-07-20T03:29:00.992Z,16.70
2018-07-20T03:31:29.878Z,16.80
2018-07-20T03:33:58.760Z,16.80
2018-07-20T03:36:27.635Z,16.80
2018-07-20T03:38:56.519Z,16.80
2018-07-20T03:41:25.402Z,16.80
2018-07-20T03:43:54.290Z,16.80
2018-07-20T03:46:23.459Z,16.80
2018-07-20T03:48:52.356Z,16.80
2018-07-20T03:51:21.224Z,16.80
2018-07-20T03:53:50.683Z,16.70
2018-07-20T03:56:19.564Z,16.80
2018-07-20T03:58:48.466Z,16.80
2018-07-20T04:01:17.395Z,16.80
2018-07-20T04:03:46.290Z,16.70
2018-07-20T04:06:15.174Z,16.80
2018-07-20T04:08:44.083Z,16.80
2018-07-20T04:11:12.987Z,16.80
2018-07-20T04:13:41.970Z,16.80
2018-07-20T04:16:10.859Z,16.80
2018-07-20T04:18:39.758Z,16.80
2018-07-20T04:21:08.660Z,16.80
2018-07-20T04:23:37.555Z,16.80
2018-07-20T04:26:06.463Z,16.80
2018-07-20T04:28:35.342Z,16.80
2018-07-20T04:31:04.221Z,16.80
2018-07-20T04:33:33.106Z,16.90
2018-07-20T04:36:02.014Z,16.90
2018-07-20T04:38:30.875Z,17.00
2018-07-20T04:40:59.762Z,17.00
2018-07-20T04:43:28.642Z,17.00
2018-07-20T04:48:26.080Z,17.00
2018-07-20T04:50:54.978Z,17.00
2018-07-20T04:53:23.864Z,17.00
2018-07-20T04:55:52.814Z,17.10
2018-07-20T04:58:21.706Z,17.10
2018-07-20T05:00:50.850Z,17.20
2018-07-20T05:03:20.054Z,17.10
2018-07-20T05:05:48.981Z,17.20
2018-07-20T05:10:46.382Z,17.30
2018-07-20T05:13:15.258Z,17.30
2018-07-20T05:15:44.194Z,17.30
2018-07-20T05:18:13.210Z,17.40
2018-07-20T05:20:42.086Z,17.40
2018-07-20T05:23:11.252Z,17.40
2018-07-20T05:25:40.141Z,17.50
2018-07-20T05:28:09.043Z,17.60
2018-07-20T05:30:37.918Z,17.60
2018-07-20T05:33:07.132Z,17.60
2018-07-20T05:35:36.020Z,17.70
2018-07-20T05:38:05.324Z,17.80
2018-07-20T05:40:34.223Z,17.90
2018-07-20T05:43:03.145Z,18.00
2018-07-20T05:45:32.022Z,18.10
2018-07-20T05:48:00.929Z,18.10
2018-07-20T05:50:29.798Z,18.20
2018-07-20T05:52:58.711Z,18.20
2018-07-20T05:55:27.595Z,18.20
2018-07-20T05:57:56.502Z,18.20
2018-07-20T06:00:25.419Z,18.20
2018-07-20T06:02:54.330Z,18.20
2018-07-20T06:07:51.745Z,18.20
2018-07-20T06:10:20.642Z,18.20
2018-07-20T06:12:51.172Z,18.30
2018-07-20T06:15:20.210Z,18.30
2018-07-20T06:17:49.835Z,18.30
2018-07-20T06:20:18.930Z,18.30
2018-07-20T06:22:47.818Z,18.30
2018-07-20T06:25:16.748Z,18.40
2018-07-20T06:27:45.678Z,18.50
2018-07-20T06:30:14.542Z,18.60
2018-07-20T06:32:43.442Z,18.70
2018-07-20T06:35:12.307Z,18.80
2018-07-20T06:37:41.382Z,18.80
2018-07-20T06:40:10.262Z,18.90
2018-07-20T06:42:39.130Z,18.90
2018-07-20T06:45:08.073Z,19.10
2018-07-20T06:47:36.950Z,19.20
2018-07-20T06:50:11.359Z,19.20
2018-07-20T06:52:40.255Z,19.10
2018-07-20T06:55:09.151Z,19.10
2018-07-20T06:57:38.052Z,19.20
2018-07-20T07:00:07.992Z,19.20
2018-07-20T07:02:37.018Z,19.10
2018-07-20T07:05:07.480Z,19.20
2018-07-20T07:07:36.346Z,19.20
2018-07-20T07:10:05.432Z,19.20
2018-07-20T07:12:34.293Z,19.30
2018-07-20T07:15:03.199Z,19.40
2018-07-20T07:17:32.070Z,19.50
2018-07-20T07:20:00.984Z,19.60
2018-07-20T07:22:29.836Z,19.70
2018-07-20T07:24:58.727Z,20.00
2018-07-20T07:27:27.606Z,20.10
2018-07-20T07:29:56.490Z,20.30
2018-07-20T07:32:25.422Z,20.50
2018-07-20T07:34:54.289Z,20.30
2018-07-20T07:37:23.182Z,20.30
2018-07-20T07:39:52.079Z,20.50
2018-07-20T07:42:20.964Z,20.80
2018-07-20T07:44:49.869Z,21.00
2018-07-20T07:47:18.742Z,21.30
2018-07-20T07:49:47.638Z,21.50
2018-07-20T07:52:16.518Z,21.80
2018-07-20T07:54:45.516Z,22.10
2018-07-20T07:57:14.415Z,21.90
2018-07-20T07:59:43.321Z,21.90
2018-07-20T08:02:12.645Z,21.90
2018-07-20T08:04:41.548Z,21.70
2018-07-20T08:07:10.425Z,21.60
2018-07-20T08:09:39.359Z,21.90
2018-07-20T08:12:08.233Z,22.20
2018-07-20T08:14:37.131Z,22.50
2018-07-20T08:17:06.023Z,22.70
2018-07-20T08:19:34.916Z,22.70
2018-07-20T08:22:03.798Z,23.00
2018-07-20T08:24:32.688Z,23.30
2018-07-20T08:27:01.567Z,23.60
2018-07-20T08:29:30.903Z,23.70
2018-07-20T08:31:59.715Z,24.10
2018-07-20T08:34:28.619Z,24.10
2018-07-20T08:36:57.567Z,24.00
2018-07-20T08:39:26.459Z,24.10
2018-07-20T08:41:55.336Z,24.30
2018-07-20T08:44:24.478Z,24.40
2018-07-20T08:46:53.363Z,24.30
2018-07-20T08:49:22.254Z,24.30
2018-07-20T08:51:51.136Z,24.40
2018-07-20T08:54:20.030Z,24.30
2018-07-20T08:56:48.943Z,24.60
2018-07-20T08:59:17.859Z,24.70
2018-07-20T09:01:46.746Z,25.00
2018-07-20T09:04:15.638Z,25.20
2018-07-20T09:06:44.624Z,25.30
2018-07-20T09:09:13.502Z,25.40
2018-07-20T09:11:42.398Z,25.80
2018-07-20T09:14:11.278Z,25.60
2018-07-20T09:16:40.183Z,25.60
2018-07-20T09:19:09.053Z,25.80
2018-07-20T09:21:37.942Z,25.80
2018-07-20T09:24:06.842Z,25.70
2018-07-20T09:26:35.730Z,25.80
2018-07-20T09:29:04.639Z,25.90
2018-07-20T09:31:33.525Z,26.10
2018-07-20T09:34:02.445Z,26.20
2018-07-20T09:36:31.399Z,26.50
2018-07-20T09:39:00.276Z,26.10
2018-07-20T09:41:29.206Z,26.30
2018-07-20T09:43:58.091Z,26.30
2018-07-20T09:46:26.986Z,26.30
2018-07-20T09:48:55.909Z,26.50
2018-07-20T09:51:24.751Z,26.50
2018-07-20T09:53:53.640Z,26.60
2018-07-20T09:56:22.529Z,26.70
2018-07-20T09:58:51.423Z,27.00
2018-07-20T10:01:20.302Z,27.30
2018-07-20T10:03:49.184Z,27.40
2018-07-20T10:06:18.893Z,27.20
2018-07-20T10:08:47.778Z,27.20
2018-07-20T10:11:16.660Z,27.40
2018-07-20T10:13:45.544Z,27.30
2018-07-20T10:16:14.702Z,27.50
2018-07-20T10:18:43.582Z,27.70
2018-07-20T10:21:12.474Z,27.70
2018-07-20T10:23:41.359Z,28.00
2018-07-20T10:26:10.260Z,27.90
2018-07-20T10:28:39.143Z,28.00
2018-07-20T10:31:08.051Z,28.10
2018-07-20T10:33:37.235Z,28.20
2018-07-20T10:36:06.127Z,28.20
2018-07-20T10:38:35.007Z,28.00
2018-07-20T10:41:03.902Z,28.30
2018-07-20T10:43:32.887Z,28.10
2018-07-20T10:46:01.756Z,28.50
2018-07-20T10:48:30.666Z,28.50
2018-07-20T10:50:59.562Z,28.70
2018-07-20T10:53:28.442Z,28.30
2018-07-20T10:55:57.331Z,28.30
2018-07-20T10:58:26.228Z,28.40
2018-07-20T11:00:55.109Z,28.60
2018-07-20T11:03:24.015Z,28.70
2018-07-20T11:05:52.891Z,29.00
2018-07-20T11:08:21.775Z,29.30
2018-07-20T11:10:50.651Z,29.40
2018-07-20T11:13:19.534Z,29.20
2018-07-20T11:15:48.416Z,29.40
2018-07-20T11:18:17.302Z,29.30
2018-07-20T11:20:46.181Z,29.30
2018-07-20T11:23:15.071Z,29.50
2018-07-20T11:25:44.060Z,29.30
2018-07-20T11:28:12.953Z,29.10
2018-07-20T11:30:41.836Z,29.20
2018-07-20T11:33:10.719Z,29.60
2018-07-20T11:35:39.591Z,29.70
2018-07-20T11:38:08.469Z,29.70
2018-07-20T11:40:37.346Z,29.60
2018-07-20T11:43:06.477Z,29.70
2018-07-20T11:45:35.316Z,29.80
2018-07-20T11:48:04.245Z,29.90
2018-07-20T11:50:33.327Z,30.00
2018-07-20T11:53:02.235Z,29.90
2018-07-20T11:55:31.124Z,29.60
2018-07-20T11:58:00.012Z,29.70
2018-07-20T12:00:28.902Z,29.60
2018-07-20T12:02:57.785Z,29.80
2018-07-20T12:05:26.667Z,29.80
2018-07-20T12:07:55.555Z,29.70
2018-07-20T12:10:24.434Z,29.80
2018-07-20T12:12:53.326Z,29.70
2018-07-20T12:15:22.219Z,29.60
2018-07-20T12:17:51.112Z,29.50
2018-07-20T12:20:19.995Z,29.40
2018-07-20T12:22:48.898Z,29.70
2018-07-20T12:25:17.774Z,30.00
2018-07-20T12:27:46.663Z,29.80
2018-07-20T12:30:15.570Z,30.00
2018-07-20T12:32:44.472Z,30.00
2018-07-20T12:35:13.355Z,30.10
2018-07-20T12:37:42.242Z,30.10
2018-07-20T12:40:11.110Z,30.00
2018-07-20T12:42:40.030Z,29.90
2018-07-20T12:45:08.902Z,30.10
2018-07-20T12:47:37.794Z,30.10
2018-07-20T12:50:06.757Z,29.90
2018-07-20T12:52:35.590Z,30.10
2018-07-20T12:55:04.474Z,29.80
2018-07-20T12:57:33.365Z,29.70
2018-07-20T13:00:02.245Z,29.70
2018-07-20T13:02:31.134Z,30.00
2018-07-20T13:05:00.019Z,29.90
2018-07-20T13:07:28.915Z,29.80
2018-07-20T13:09:57.821Z,30.00
2018-07-20T13:12:26.702Z,30.00
2018-07-20T13:14:55.585Z,30.10
2018-07-20T13:17:24.468Z,30.10
2018-07-20T13:19:53.345Z,30.30
2018-07-20T13:22:22.273Z,29.90
2018-07-20T13:24:51.192Z,29.80
2018-07-20T13:27:20.019Z,29.80
2018-07-20T13:29:48.933Z,29.80
2018-07-20T13:32:17.789Z,29.80
2018-07-20T13:34:46.688Z,29.70
2018-07-20T13:37:15.576Z,29.50
2018-07-20T13:39:44.708Z,29.40
2018-07-20T13:42:13.518Z,29.40
2018-07-20T13:44:42.414Z,29.40
2018-07-20T13:47:11.307Z,29.50
2018-07-20T13:49:40.190Z,29.60
2018-07-20T13:52:09.059Z,29.50
2018-07-20T13:54:37.972Z,29.50
2018-07-20T13:57:06.854Z,29.60
2018-07-20T13:59:35.743Z,29.70
2018-07-20T14:02:04.682Z,29.70
2018-07-20T14:04:33.579Z,29.60
2018-07-20T14:07:02.724Z,29.70
2018-07-20T14:09:31.603Z,29.70
2018-07-20T14:12:00.495Z,29.80
2018-07-20T14:14:29.418Z,29.80
2018-07-20T14:16:58.309Z,29.50
2018-07-20T14:19:27.185Z,29.50
2018-07-20T14:21:56.063Z,29.40
2018-07-20T14:24:24.968Z,29.50
2018-07-20T14:26:53.855Z,29.50
2018-07-20T14:29:22.751Z,29.60
2018-07-20T14:31:51.746Z,29.90
2018-07-20T14:34:20.531Z,30.10
2018-07-20T14:36:49.422Z,30.00
2018-07-20T14:39:18.583Z,30.20
2018-07-20T14:41:47.561Z,30.20
2018-07-20T14:44:16.428Z,30.10
2018-07-20T14:46:45.315Z,30.40
2018-07-20T14:49:14.214Z,30.40
2018-07-20T14:51:43.085Z,30.40
2018-07-20T14:54:11.991Z,30.60
2018-07-20T14:56:40.878Z,30.40
2018-07-20T14:59:09.783Z,30.30
2018-07-20T15:01:38.687Z,30.00
2018-07-20T15:04:07.646Z,29.80
2018-07-20T15:06:36.622Z,29.80
2018-07-20T15:09:08.021Z,29.90
2018-07-20T15:11:36.934Z,29.80
2018-07-20T15:14:05.934Z,29.80
2018-07-20T15:16:34.820Z,29.70
2018-07-20T15:19:03.690Z,29.50
2018-07-20T15:21:32.605Z,29.40
2018-07-20T15:24:01.517Z,29.40
2018-07-20T15:26:30.407Z,29.70
2018-07-20T15:28:59.480Z,29.80
2018-07-20T15:31:28.695Z,29.70
2018-07-20T15:33:57.630Z,29.60
2018-07-20T15:36:26.808Z,29.50
2018-07-20T15:38:55.674Z,29.40
2018-07-20T15:41:24.566Z,29.30
2018-07-20T15:43:53.483Z,29.30
2018-07-20T15:46:22.430Z,29.40
2018-07-20T15:48:51.214Z,29.40
2018-07-20T15:51:20.094Z,29.50
2018-07-20T15:53:49.005Z,29.50
2018-07-20T15:56:17.855Z,29.40
2018-07-20T15:58:46.758Z,29.40
2018-07-20T16:01:15.675Z,29.40
2018-07-20T16:03:44.534Z,29.40
2018-07-20T16:06:13.430Z,29.30
2018-07-20T16:08:42.314Z,29.50
2018-07-20T16:11:11.470Z,29.40
2018-07-20T16:13:40.393Z,29.40
2018-07-20T16:16:09.286Z,29.50
2018-07-20T16:18:38.166Z,29.50
2018-07-20T16:21:07.393Z,29.30
2018-07-20T16:23:36.269Z,29.10
2018-07-20T16:26:05.457Z,29.00
2018-07-20T16:28:34.326Z,28.90
2018-07-20T16:31:03.210Z,28.90
2018-07-20T16:33:32.081Z,28.90
2018-07-20T16:36:00.990Z,28.80
2018-07-20T16:38:29.880Z,28.60
2018-07-20T16:40:58.787Z,28.50
2018-07-20T16:43:27.675Z,28.60
2018-07-20T16:45:56.566Z,28.50
2018-07-20T16:48:25.451Z,28.60
2018-07-20T16:50:54.343Z,28.80
2018-07-20T16:53:23.314Z,28.80
2018-07-20T16:55:52.189Z,28.80
2018-07-20T16:58:21.098Z,28.60
2018-07-20T17:00:50.309Z,28.60
2018-07-20T17:03:19.183Z,28.70
2018-07-20T17:05:48.095Z,28.50
2018-07-20T17:08:16.979Z,28.40
2018-07-20T17:10:45.858Z,28.40
2018-07-20T17:13:14.730Z,28.20
2018-07-20T17:15:43.626Z,28.20
2018-07-20T17:18:12.513Z,28.20
2018-07-20T17:20:41.406Z,28.10
2018-07-20T17:23:10.290Z,28.00
2018-07-20T17:25:39.189Z,28.00
2018-07-20T17:28:08.100Z,28.00
2018-07-20T17:30:36.977Z,28.00
2018-07-20T17:33:05.860Z,27.90
2018-07-20T17:35:34.738Z,27.90
2018-07-20T17:38:03.647Z,27.70
2018-07-20T17:40:32.542Z,27.60
2018-07-20T17:43:01.435Z,27.50
2018-07-20T17:45:30.319Z,27.40
2018-07-20T17:47:59.220Z,27.40
2018-07-20T17:50:28.306Z,27.30
2018-07-20T17:52:57.201Z,27.30
2018-07-20T17:55:26.087Z,27.30
2018-07-20T17:57:55.019Z,27.30
2018-07-20T18:00:23.922Z,27.20
2018-07-20T18:02:52.819Z,27.10
2018-07-20T18:05:21.693Z,27.00
2018-07-20T18:07:50.590Z,27.00
2018-07-20T18:10:19.496Z,26.90
2018-07-20T18:12:48.396Z,26.90
2018-07-20T18:15:17.486Z,26.80
2018-07-20T18:17:46.391Z,26.80
2018-07-20T18:20:15.266Z,26.70
2018-07-20T18:22:44.186Z,26.70
2018-07-20T18:25:14.082Z,26.60
2018-07-20T18:27:42.975Z,26.50
2018-07-20T18:30:11.877Z,26.50
2018-07-20T18:32:40.754Z,26.40
2018-07-20T18:35:09.629Z,26.30
2018-07-20T18:37:38.555Z,26.20
2018-07-20T18:40:07.482Z,26.10
2018-07-20T18:42:36.571Z,26.00
2018-07-20T18:45:06.618Z,25.90
2018-07-20T18:47:35.670Z,25.80
2018-07-20T18:50:05.794Z,25.70
2018-07-20T18:52:34.722Z,25.60
2018-07-20T18:55:03.642Z,25.50
2018-07-20T18:57:32.662Z,25.40
2018-07-20T19:00:01.561Z,25.30
2018-07-20T19:02:30.449Z,25.20
2018-07-20T19:04:59.349Z,25.10
2018-07-20T19:07:28.321Z,25.00
2018-07-20T19:09:57.207Z,24.80
2018-07-20T19:12:26.106Z,24.60
2018-07-20T19:14:55.134Z,24.50
2018-07-20T19:17:24.040Z,24.40
2018-07-20T19:19:52.923Z,24.30
2018-07-20T19:22:21.806Z,24.20
2018-07-20T19:24:50.699Z,24.10
2018-07-20T19:27:19.563Z,24.10
2018-07-20T19:29:48.438Z,23.90
2018-07-20T19:32:17.334Z,23.80
2018-07-20T19:37:15.087Z,23.60
2018-07-20T19:39:44.026Z,23.50
2018-07-20T19:42:12.888Z,23.40
2018-07-20T19:44:41.774Z,23.30
2018-07-20T19:47:10.848Z,23.30
2018-07-20T19:49:40.062Z,23.20
2018-07-20T19:52:08.898Z,23.10
2018-07-20T19:54:37.795Z,23.00
2018-07-20T19:57:06.872Z,23.00
2018-07-20T19:59:36.275Z,22.90
2018-07-20T20:02:05.158Z,22.80
2018-07-20T20:04:34.051Z,22.90
2018-07-20T20:07:02.927Z,22.80
2018-07-20T20:09:31.814Z,22.60
2018-07-20T20:12:00.790Z,22.60
2018-07-20T20:14:29.688Z,22.50
2018-07-20T20:16:59.046Z,22.40
2018-07-20T20:19:27.938Z,22.40
2018-07-20T20:21:56.833Z,22.40
2018-07-20T20:24:25.768Z,22.40
2018-07-20T20:26:54.643Z,22.40
2018-07-20T20:29:23.528Z,22.30
2018-07-20T20:31:52.429Z,22.20
2018-07-20T20:34:21.542Z,22.20
2018-07-20T20:36:50.427Z,22.10
2018-07-20T20:39:19.312Z,22.00
2018-07-20T20:41:48.287Z,22.00
2018-07-20T20:44:17.181Z,22.10
2018-07-20T20:46:46.162Z,22.10
2018-07-20T20:49:15.333Z,22.10
2018-07-20T20:51:44.211Z,22.10
2018-07-20T20:54:13.336Z,22.10
2018-07-20T20:56:42.236Z,22.10
2018-07-20T20:59:11.193Z,22.00
2018-07-20T21:01:40.039Z,22.00
2018-07-20T21:04:08.958Z,22.00
2018-07-20T21:06:37.847Z,22.00
2018-07-20T21:09:07.937Z,21.90
2018-07-20T21:11:37.006Z,21.90
2018-07-20T21:14:05.889Z,21.90
2018-07-20T21:16:34.882Z,21.90
2018-07-20T21:19:03.798Z,21.80
2018-07-20T21:21:32.910Z,21.70
2018-07-20T21:24:01.822Z,21.70
2018-07-20T21:26:30.711Z,21.70
2018-07-20T21:28:59.611Z,21.60
2018-07-20T21:31:28.511Z,21.60
2018-07-20T21:33:57.407Z,21.60
2018-07-20T21:36:26.397Z,21.50
2018-07-20T21:38:55.303Z,21.50
2018-07-20T21:41:24.178Z,21.40
2018-07-20T21:43:53.162Z,21.40
2018-07-20T21:46:22.186Z,21.30
2018-07-20T21:48:51.071Z,21.20
2018-07-20T21:51:19.963Z,21.20
2018-07-20T21:53:48.874Z,21.20
2018-07-20T21:56:18.130Z,21.10
2018-07-20T21:58:47.026Z,21.10
2018-07-20T22:01:15.907Z,21.00
2018-07-20T22:03:44.802Z,21.00
2018-07-20T22:06:13.682Z,20.90
2018-07-20T22:08:42.590Z,20.80
2018-07-20T22:11:11.574Z,20.80
2018-07-20T22:13:40.450Z,20.80
2018-07-20T22:16:09.342Z,20.70
2018-07-20T22:18:38.230Z,20.60
2018-07-20T22:21:07.138Z,20.60
2018-07-20T22:23:36.115Z,20.60
2018-07-20T22:26:05.354Z,20.60
2018-07-20T22:28:34.262Z,20.60
2018-07-20T22:31:03.146Z,20.60
2018-07-20T22:33:32.035Z,20.60
2018-07-20T22:36:00.928Z,20.50
2018-07-20T22:38:29.807Z,20.50
2018-07-20T22:40:58.719Z,20.40
2018-07-20T22:43:27.601Z,20.40
2018-07-20T22:45:56.490Z,20.40
2018-07-20T22:48:25.431Z,20.30
2018-07-20T22:50:54.323Z,20.30
2018-07-20T22:53:23.210Z,20.30
2018-07-20T22:55:52.097Z,20.30
2018-07-20T22:58:20.998Z,20.30
2018-07-20T23:00:49.881Z,20.20
2018-07-20T23:03:18.768Z,20.20
2018-07-20T23:05:47.654Z,20.20
2018-07-20T23:08:16.545Z,20.20
2018-07-20T23:10:45.446Z,20.20
2018-07-20T23:13:14.338Z,20.20
2018-07-20T23:15:43.231Z,20.10
2018-07-20T23:18:12.110Z,20.10
2018-07-20T23:20:41.000Z,20.10
2018-07-20T23:23:09.870Z,20.10
2018-07-20T23:25:38.834Z,20.00
2018-07-20T23:30:36.366Z,20.00
2018-07-20T23:33:05.391Z,20.10
2018-07-20T23:35:34.288Z,20.00
2018-07-20T23:38:03.178Z,20.00
2018-07-20T23:40:32.106Z,20.00
2018-07-20T23:43:00.981Z,20.00
2018-07-20T23:45:29.870Z,19.90
2018-07-20T23:47:58.746Z,19.90
2018-07-20T23:50:27.670Z,19.90
2018-07-20T23:52:56.554Z,19.90
2018-07-20T23:55:25.448Z,19.90
2018-07-20T23:57:54.331Z,19.80
